Aviation Digital Data Service (ADDS)

Output produced by METARs form (0624 UTC 23 February 2018)
found at http://aviationweather.gov/adds/metars/
 
KSLK 230530Z 2306/2406 VRB03KT P6SM SCT200 
     FM231800 18009G15KT 4SM -RA BR OVC030 
     FM232100 19014G22KT 3SM -RA BR OVC015 
     FM240300 23013G21KT 4SM -RA BR OVC015 
     FM240500 24013G20KT P6SM VCSH BKN015